createdAt,value
2022-12-05T00:01:38.938Z,104180.72
2022-12-05T00:04:08.596Z,104167.50
2022-12-05T00:06:36.718Z,104172.03
2022-12-05T00:09:04.976Z,104167.38
2022-12-05T00:11:34.315Z,104170.22
2022-12-05T00:14:03.544Z,104181.00
2022-12-05T00:16:34.912Z,104177.59
2022-12-05T00:19:03.242Z,104165.97
2022-12-05T00:21:32.795Z,104160.50
2022-12-05T00:24:00.679Z,104168.19
2022-12-05T00:26:27.892Z,104139.06
2022-12-05T00:28:54.881Z,104166.69
2022-12-05T00:31:24.037Z,104158.06
2022-12-05T00:33:51.911Z,104137.97
2022-12-05T00:36:26.029Z,104167.41
2022-12-05T00:38:53.502Z,104163.03
2022-12-05T00:41:26.076Z,104169.03
2022-12-05T00:43:54.080Z,104164.66
2022-12-05T00:46:23.459Z,104178.59
2022-12-05T00:48:52.256Z,104151.94
2022-12-05T00:51:28.419Z,104166.50
2022-12-05T00:53:58.195Z,104170.13
2022-12-05T00:56:26.204Z,104161.75
2022-12-05T00:58:56.105Z,104172.25
2022-12-05T01:01:32.739Z,104167.19
2022-12-05T01:04:02.120Z,104172.94
2022-12-05T01:06:29.065Z,104153.03
2022-12-05T01:08:57.363Z,104163.34
2022-12-05T01:11:25.813Z,104154.38
2022-12-05T01:13:53.490Z,104149.50
2022-12-05T01:16:24.759Z,104141.25
2022-12-05T01:18:52.265Z,104150.63
2022-12-05T01:21:20.328Z,104139.59
2022-12-05T01:23:47.316Z,104137.56
2022-12-05T01:26:16.235Z,104134.66
2022-12-05T01:28:43.620Z,104138.41
2022-12-05T01:31:22.188Z,104154.25
2022-12-05T01:33:49.232Z,104145.34
2022-12-05T01:36:16.051Z,104151.94
2022-12-05T01:38:43.509Z,104144.16
2022-12-05T01:41:15.012Z,104141.81
2022-12-05T01:44:00.454Z,104145.25
2022-12-05T01:46:29.689Z,104136.56
2022-12-05T01:49:04.191Z,104125.00
2022-12-05T01:51:33.937Z,104128.38
2022-12-05T01:54:02.163Z,104127.53
2022-12-05T01:56:29.152Z,104133.03
2022-12-05T01:58:57.447Z,104132.59
2022-12-05T02:01:24.169Z,104133.63
2022-12-05T02:03:54.534Z,104128.84
2022-12-05T02:06:22.774Z,104114.69
2022-12-05T02:08:49.912Z,104126.31
2022-12-05T02:11:16.776Z,104125.00
2022-12-05T02:13:59.592Z,104108.53
2022-12-05T02:16:50.283Z,104117.22
2022-12-05T02:19:41.366Z,104119.53
2022-12-05T02:22:08.067Z,104111.06
2022-12-05T02:24:43.809Z,104115.69
2022-12-05T02:27:39.514Z,104105.19
2022-12-05T02:30:10.471Z,104102.28
2022-12-05T02:32:49.419Z,104118.03
2022-12-05T02:35:37.415Z,104094.16
2022-12-05T02:38:28.780Z,104090.13
2022-12-05T02:41:36.520Z,104099.22
2022-12-05T02:44:17.498Z,104095.78
2022-12-05T02:46:47.219Z,104092.88
2022-12-05T02:49:20.924Z,104089.41
2022-12-05T02:51:52.991Z,104092.88
2022-12-05T02:54:41.412Z,104086.88
2022-12-05T02:57:10.851Z,104080.53
2022-12-05T02:59:40.747Z,104091.94
2022-12-05T03:02:24.484Z,104083.06
2022-12-05T03:04:51.311Z,104082.84
2022-12-05T03:07:22.384Z,104100.72
2022-12-05T03:09:59.591Z,104081.75
2022-12-05T03:12:31.117Z,104076.47
2022-12-05T03:15:10.916Z,104075.78
2022-12-05T03:18:04.587Z,104072.75
2022-12-05T03:20:39.614Z,104068.69
2022-12-05T03:23:21.057Z,104073.66
2022-12-05T03:26:03.347Z,104067.31
2022-12-05T03:28:38.711Z,104070.94
2022-12-05T03:31:11.426Z,104067.09
2022-12-05T03:33:44.784Z,104053.56
2022-12-05T03:36:29.889Z,104059.53
2022-12-05T03:39:22.943Z,104052.94
2022-12-05T03:42:00.594Z,104052.25
2022-12-05T03:44:38.191Z,104051.47
2022-12-05T03:47:20.959Z,104033.88
2022-12-05T03:49:54.062Z,104045.50
2022-12-05T03:56:19.935Z,104040.31
2022-12-05T03:58:59.662Z,104028.72
2022-12-05T04:01:30.007Z,104020.00
2022-12-05T04:04:02.614Z,104023.84
2022-12-05T04:06:33.567Z,104016.44
2022-12-05T04:09:06.027Z,104040.38
2022-12-05T04:11:36.619Z,104029.47
2022-12-05T17:18:46.922Z,103300.78
2022-12-05T17:21:16.983Z,103278.28
2022-12-05T17:23:48.135Z,103293.78
2022-12-05T17:26:21.441Z,103288.47
2022-12-05T17:28:49.274Z,103272.53
2022-12-05T17:31:18.627Z,103280.00
2022-12-05T17:33:46.715Z,103260.50
2022-12-05T17:36:16.283Z,103260.91
2022-12-05T17:38:43.647Z,103277.94
2022-12-05T17:41:22.554Z,103248.47
2022-12-05T17:44:03.268Z,103269.13
2022-12-05T17:46:30.083Z,103266.13
2022-12-05T17:48:56.888Z,103248.13
2022-12-05T17:51:24.532Z,103257.16
2022-12-05T17:54:32.325Z,103253.03
2022-12-05T17:57:21.856Z,103255.28
2022-12-05T17:59:48.619Z,103248.91
2022-12-05T18:02:17.545Z,103251.03
2022-12-05T18:04:47.590Z,103238.34
2022-12-05T18:07:15.431Z,103247.91
2022-12-05T18:09:52.512Z,103226.53
2022-12-05T18:12:19.296Z,103247.06
2022-12-05T18:14:46.003Z,103243.81
2022-12-05T18:17:14.560Z,103244.44
2022-12-05T18:19:41.378Z,103244.16
2022-12-05T18:22:08.088Z,103249.16
2022-12-05T18:24:38.500Z,103248.91
2022-12-05T18:27:05.480Z,103232.91
2022-12-05T18:29:32.294Z,103231.56
2022-12-05T18:31:59.042Z,103212.59
2022-12-05T18:34:26.024Z,103235.41
2022-12-05T18:36:52.769Z,103246.81
2022-12-05T18:39:19.686Z,103233.81
2022-12-05T18:41:46.329Z,103230.59
2022-12-05T18:44:13.165Z,103230.19
2022-12-05T18:46:40.081Z,103221.97
2022-12-05T18:49:09.382Z,103219.31
2022-12-05T18:51:36.045Z,103203.69
2022-12-05T18:54:08.373Z,103203.25
2022-12-05T18:56:36.198Z,103218.38
2022-12-05T18:59:05.553Z,103202.50
2022-12-05T19:01:36.184Z,103214.66
2022-12-05T19:04:04.591Z,103208.78
2022-12-05T19:06:33.519Z,103219.75
2022-12-05T19:09:04.113Z,103213.00
2022-12-05T19:11:31.184Z,103227.94
2022-12-05T19:14:00.789Z,103230.03
2022-12-05T19:16:31.935Z,103208.75
2022-12-05T19:19:01.197Z,103224.16
2022-12-05T19:21:32.427Z,103209.78
2022-12-05T19:23:59.294Z,103211.91
2022-12-05T19:26:29.258Z,103208.84
2022-12-05T19:28:56.807Z,103195.56
2022-12-05T19:31:37.370Z,103202.91
2022-12-05T19:34:05.885Z,103202.75
2022-12-05T19:37:29.379Z,103195.47
2022-12-05T19:39:56.151Z,103170.75
2022-12-05T19:42:22.888Z,103177.53
2022-12-05T19:44:49.530Z,103182.78
2022-12-05T19:47:16.147Z,103172.31
2022-12-05T19:49:42.755Z,103177.25
2022-12-05T19:52:09.410Z,103183.28
2022-12-05T19:54:36.013Z,103180.25
2022-12-05T19:57:02.593Z,103168.88
2022-12-05T19:59:29.252Z,103165.13
2022-12-05T20:01:55.953Z,103175.78
2022-12-05T20:04:22.602Z,103174.41
2022-12-05T20:06:50.566Z,103165.25
2022-12-05T20:09:20.018Z,103173.97
2022-12-05T20:11:54.649Z,103178.78
2022-12-05T20:14:25.100Z,103177.53
2022-12-05T20:16:56.737Z,103170.97
2022-12-05T20:19:23.725Z,103173.38
2022-12-05T20:21:50.406Z,103166.03
2022-12-05T20:24:16.994Z,103172.44
2022-12-05T20:26:44.799Z,103157.19
2022-12-05T20:29:11.878Z,103178.44
2022-12-05T20:31:40.816Z,103176.38
2022-12-05T20:34:09.417Z,103179.50
2022-12-05T20:36:38.167Z,103174.13
2022-12-05T20:39:15.349Z,103173.53
2022-12-05T20:41:42.091Z,103155.84
2022-12-05T20:44:08.987Z,103166.34
2022-12-05T20:46:36.914Z,103162.25
2022-12-05T20:49:03.832Z,103148.53
2022-12-05T20:51:33.020Z,103149.84
2022-12-05T20:54:02.119Z,103152.72
2022-12-05T20:56:31.882Z,103154.78
2022-12-05T20:59:01.069Z,103141.75
2022-12-05T21:01:30.133Z,103159.28
2022-12-05T21:03:57.942Z,103157.03
2022-12-05T21:06:24.465Z,103150.63
2022-12-05T21:08:51.930Z,103156.00
2022-12-05T21:11:19.682Z,103153.47
2022-12-05T21:13:46.425Z,103142.53
2022-12-05T21:16:17.592Z,103148.22
2022-12-05T21:18:46.390Z,103154.34
2022-12-05T21:21:21.766Z,103134.94
2022-12-05T21:23:53.555Z,103145.09
2022-12-05T21:26:23.346Z,103136.69
2022-12-05T21:28:50.283Z,103141.63
2022-12-05T21:31:22.972Z,103120.97
2022-12-05T21:33:52.482Z,103130.41
2022-12-05T21:36:19.879Z,103141.47
2022-12-05T21:38:52.402Z,103134.44
2022-12-05T21:41:22.323Z,103131.56
2022-12-05T21:43:54.048Z,103134.84
2022-12-05T21:46:22.251Z,103124.53
2022-12-05T21:48:48.850Z,103109.84
2022-12-05T21:51:15.722Z,103128.44
2022-12-05T21:53:42.397Z,103126.34
2022-12-05T21:56:11.958Z,103136.84
2022-12-05T21:58:42.306Z,103134.28
2022-12-05T22:01:10.802Z,103124.84
2022-12-05T22:03:37.890Z,103120.97
2022-12-05T22:06:10.514Z,103125.63
2022-12-05T22:08:38.488Z,103129.22
2022-12-05T22:11:05.061Z,103122.50
2022-12-05T22:13:32.429Z,103114.88
2022-12-05T22:15:59.689Z,103108.72
2022-12-05T22:18:27.850Z,103112.28
2022-12-05T22:20:57.608Z,103112.00
2022-12-05T22:23:25.123Z,103099.72
2022-12-05T22:26:14.709Z,103089.84
2022-12-05T22:28:41.606Z,103089.97
2022-12-05T22:31:10.949Z,103084.28
2022-12-05T22:33:38.718Z,103084.00
2022-12-05T22:36:10.178Z,103082.47
2022-12-05T22:38:39.627Z,103088.66
2022-12-05T22:41:09.256Z,103074.84
2022-12-05T22:43:37.805Z,103078.91
2022-12-05T22:46:12.879Z,103070.19
2022-12-05T22:48:39.828Z,103068.72
2022-12-05T22:51:08.214Z,103071.72
2022-12-05T22:53:35.819Z,103067.22
2022-12-05T22:56:14.504Z,103072.00
2022-12-05T22:58:42.464Z,103073.81
2022-12-05T23:01:20.733Z,103071.56
2022-12-05T23:03:50.221Z,103069.91
2022-12-05T23:06:18.286Z,103070.97
2022-12-05T23:08:47.938Z,103065.88
2022-12-05T23:11:16.850Z,103064.97
2022-12-05T23:13:43.578Z,103066.75
2022-12-05T23:16:16.058Z,103061.22
2022-12-05T23:18:49.713Z,103059.13
2022-12-05T23:21:21.464Z,103059.41
2022-12-05T23:23:49.810Z,103058.53
2022-12-05T23:26:18.291Z,103064.66
2022-12-05T23:28:45.045Z,103058.09
2022-12-05T23:31:14.668Z,103058.63
2022-12-05T23:33:41.717Z,103044.72
2022-12-05T23:36:09.362Z,103044.53
2022-12-05T23:38:41.091Z,103043.88
2022-12-05T23:41:09.524Z,103030.69
2022-12-05T23:43:36.906Z,103034.38
2022-12-05T23:46:04.927Z,103025.81
2022-12-05T23:48:32.558Z,103042.88
2022-12-05T23:51:11.798Z,103037.31
2022-12-05T23:53:40.927Z,103032.69
2022-12-05T23:56:12.797Z,103033.44
2022-12-05T23:58:40.287Z,103021.28
